Flight Track Log - Related Links

Times and Time Zones

All times are in EDT time to prevent confusion due to time zone crossing. See the UAL4588 flight status page for this flight to view local times or setup timezone preferences in your user account.

Time Position Orientation Groundspeed Altitude Reporting Facility
EDT Latitude Longitude Course Direction KTS MPH feet Rate Location/Type
Thu 07:05:44 AM 30.3644 -89.0717 235° Southwest 189 217 2,300  Level Houston Center
Thu 07:06:45 AM 30.3339 -89.1319 240° Southwest 214 246 4,400 2,182 Climbing Houston Center
Thu 07:07:00 AM 30.2371 -89.3296 221° Southwest  Level FlightAware Approximate
Thu 07:07:45 AM 30.2947 -89.2031 237° Southwest 251 289 6,700  Level Houston Center
Thu 07:08:00 AM 30.1891 -89.4218 240° Southwest  Level FlightAware Approximate
Thu 07:08:46 AM 30.2547 -89.2756 237° Southwest 263 303 9,000  Level Houston Center
Thu 07:09:00 AM 30.1350 -89.5090 229° Southwest  Level FlightAware Approximate
Thu 07:09:46 AM 30.2133 -89.3506 237° Southwest 272 313 11,100  Level Houston Center
Thu 07:10:00 AM 30.0794 -89.5954 235° Southwest  Level FlightAware Approximate
Thu 07:10:47 AM 30.1653 -89.4367 237° Southwest 313 360 11,900  Level Houston Center
Thu 07:11:48 AM 30.1139 -89.5303 238° Southwest 339 390 13,200 1,289 Climbing Houston Center
Thu 07:12:48 AM 30.0592 -89.6286 237° Southwest 354 407 14,500 1,339 Climbing Houston Center
Thu 07:13:49 AM 30.0033 -89.7286 237° Southwest 365 420 15,900 1,339 Climbing Houston Center
Thu 07:14:49 AM 29.9483 -89.8297 238° Southwest 368 423 17,200 1,289 Climbing Houston Center
Thu 07:15:50 AM 29.8897 -89.9319 237° Southwest 376 433 18,500 1,279 Climbing Houston Center
Thu 07:16:51 AM 29.8450 -90.0422 245° Southwest 385 443 19,800 1,438 Climbing Houston Center
Thu 07:17:51 AM 29.8233 -90.1883 260° West 388 447 21,400 1,438 Climbing Houston Center
Thu 07:18:52 AM 29.8039 -90.3133 260° West 392 451 22,700 1,230 Climbing Houston Center
Thu 07:19:53 AM 29.7842 -90.4361 260° West 391 450 23,900 1,279 Climbing Houston Center
Thu 07:20:54 AM 29.7656 -90.5608 260° West 393 452 25,300 1,279 Climbing Houston Center
Thu 07:21:55 AM 29.7472 -90.6864 260° West 397 457 26,500 1,240 Climbing Houston Center
Thu 07:22:55 AM 29.7264 -90.8100 259° West 395 455 27,800 1,289 Climbing Houston Center
Thu 07:23:56 AM 29.7078 -90.9317 260° West 390 449 29,100 1,279 Climbing Houston Center
Thu 07:24:57 AM 29.6892 -91.0533 260° West 388 447 30,400 1,279 Climbing Houston Center
Thu 07:25:58 AM 29.6697 -91.1747 260° West 386 444 31,700 1,279 Climbing Houston Center
Thu 07:26:59 AM 29.6497 -91.2956 259° West 385 443 33,000 1,131 Climbing Houston Center
Thu 07:28:00 AM 29.6292 -91.4183 259° West 390 449 34,000 492 Climbing Houston Center
Thu 07:29:01 AM 29.6078 -91.5472 259° West 405 466 34,000  Level Houston Center
Thu 07:30:01 AM 29.5869 -91.6839 260° West 428 493 34,000  Level Houston Center
Thu 07:31:02 AM 29.5606 -91.8444 259° West 438 504 34,000  Level Houston Center
Thu 07:32:03 AM 29.5350 -91.9875 258° West 450 518 34,000  Level Houston Center
Thu 07:33:04 AM 29.5122 -92.1269 259° West 448 516 34,000  Level Houston Center
Thu 07:34:05 AM 29.4897 -92.2658 259° West 445 512 34,000  Level Houston Center
Thu 07:35:06 AM 29.4658 -92.4047 259° West 445 512 34,000  Level Houston Center
Thu 07:36:07 AM 29.4603 -92.5425 267° West 432 497 34,000  Level Houston Center
Thu 07:37:08 AM 29.4678 -92.6797 274° West 429 494 34,000  Level Houston Center
Thu 07:38:09 AM 29.4728 -92.8150 272° West 426 490 34,000 -393 Level Houston Center
Thu 07:39:10 AM 29.4797 -92.9489 273° West 420 483 33,200 -984 Descending Houston Center
Thu 07:40:11 AM 29.4844 -93.0794 272° West 411 473 32,000 -1,574 Descending Houston Center
Thu 07:41:12 AM 29.4919 -93.2161 274° West 426 490 30,000 -2,016 Descending Houston Center
Thu 07:42:13 AM 29.4972 -93.3567 273° West 437 503 27,900 -2,115 Descending Houston Center
Thu 07:43:14 AM 29.5033 -93.5019 273° West 452 520 25,700 -2,146 Descending Houston Center
Thu 07:44:16 AM 29.5086 -93.6464 272° West 453 521 23,500 -2,146 Descending Houston Center
Thu 07:45:17 AM 29.5142 -93.7858 273° West 440 506 21,300 -2,410 Descending Houston Center
Thu 07:46:18 AM 29.5200 -93.9453 272° West 419 482 18,600 -2,557 Descending Houston Center
Thu 07:47:19 AM 29.5239 -94.0694 272° West 395 455 16,100 -2,412 Descending Houston Center
Thu 07:48:00 AM 29.5258 -94.1564 271° West 374 430 14,500 -2,164 Descending Houston Center
Thu 07:48:20 AM 29.5269 -94.1803 273° West 376 433 13,900 -1,527 Descending Houston Center
Thu 07:48:55 AM 29.5294 -94.2544 272° West 323 372 13,100 -885 Descending Houston Center
Thu 07:49:21 AM 29.5322 -94.2844 276° West 334 384 13,000 -109 Descending Houston Center
Thu 07:49:50 AM 29.5364 -94.3447 275° West 325 374 13,000 -492 Level Houston Center
Thu 07:50:22 AM 29.5497 -94.3822 292° West 317 365 12,500 -1,475 Descending Houston Center
Thu 07:50:51 AM 29.5728 -94.4364 296° West 288 331 11,500 -1,672 Descending Houston Center
Thu 07:51:23 AM 29.5853 -94.4644 297° West 294 338 10,800 -1,700 Descending Houston Center
Thu 07:51:51 AM 29.6056 -94.5139 295° West 270 311 9,800 -1,672 Descending Houston Center
Thu 07:52:24 AM 29.6178 -94.5411 297° West 272 313 9,100 -1,645 Descending Houston Center
Thu 07:52:53 AM 29.6383 -94.5889 296° West 254 292 8,100 -1,548 Descending Houston Center
Thu 07:53:26 AM 29.6492 -94.6119 298° West 256 295 7,500 -1,100 Descending Houston Center
Thu 07:53:53 AM 29.6814 -94.6436 320° Northwest 241 277 7,000 -492 Descending Houston Center
Thu 07:54:27 AM 29.7106 -94.6689 323° Northwest 243 280 7,000  Level Houston Center
Thu 07:54:54 AM 29.7364 -94.6894 325° Northwest 242 278 7,000  Level Houston Center
Thu 07:55:28 AM 29.7653 -94.7150 322° Northwest 244 281 7,000 -590 Level Houston Center
Thu 07:55:55 AM 29.7936 -94.7400 323° Northwest 249 287 6,400 -1,377 Descending Houston Center
Thu 07:56:29 AM 29.8189 -94.7625 322° Northwest 244 281 5,600 -1,279 Descending Houston Center
Thu 07:56:56 AM 29.8464 -94.7864 323° Northwest 234 269 5,100 -590 Descending Houston Center
Thu 07:57:30 AM 29.8722 -94.8058 327° Northwest 237 273 5,000 -393 Descending Houston Center
Thu 07:57:57 AM 29.9014 -94.8325 322° Northwest 235 270 4,700 -774 Descending Houston Center
Thu 07:58:32 AM 29.9239 -94.8539 321° Northwest 239 275 4,200 -636 Descending Houston Center
Thu 07:59:03 AM 29.9589 -94.8856 322° Northwest 241 277 4,000 -197 Descending Houston Center
Thu 07:59:33 AM 29.9683 -94.9092 295° West 249 287 4,000 -590 Level Houston Center
Thu 08:00:04 AM 29.9828 -94.9597 288° West 239 275 3,400 -885 Descending Houston Center
Thu 08:00:34 AM 29.9889 -94.9808 288° West 233 268 3,100 -387 Descending Houston Center
Thu 08:01:06 AM 29.9936 -95.0308 276° West 234 269 3,000 -98 Descending Houston Center
Thu 08:01:35 AM 29.9939 -95.0700 270° West 238 274 3,000  Level Houston Center
Thu 08:02:06 AM 29.9928 -95.1131 268° West 254 292 3,000 -97 Level Houston Center
Thu 08:02:37 AM 29.9933 -95.1503 271° West 249 287 2,900 -545 Descending Houston Center
Thu 08:03:01 AM 29.9933 -95.1853 270° West 245 282 2,500 -1,082 Descending Houston Center
Thu 08:03:38 AM 29.9936 -95.2261 270° West 246 283 1,800 -1,164 Descending Houston Center
Thu 08:04:08 AM 29.9942 -95.2625 271° West 195 224 1,200 -885 Descending Houston Center
Thu 08:04:39 AM 29.9944 -95.2836 271° West 208 239 900 -516 Descending Houston Center
Thu 08:05:41 AM 29.9947 -95.3333 270° West 175 201 400 -484 Descending Houston Center
Thu 08:07:00 AM 29.9844 -95.3414 214° Southwest  Level Estimated

Login

Don't have an account? Register now (free) for customized features, flight alerts, and more!